Kuwait, Kuwait

7:34 AM AST on February 11, 2016 (GMT +0300)
Kuwait International | | Change Station
CLOSE
Current Station
Airport
Location: Kuwait,
Elevation: 180 ft
Nearby Weather Stations

Elev 180 ft 29.22 °N, 47.98 °E | Updated 4 minutes ago

Mostly Cloudy
Mostly Cloudy
57 °F
Feels Like 57 °F
N
4
Wind Variable Wind from NE

Today
High -- | Low -- °F
--% Chance of Precip.
Yesterday
High -- | Low -- °F
Precip. -- in
Pressure 30.04 in
Visibility 4.3 miles
Clouds Few 4000 ft
Mostly Cloudy 8000 ft
Dew Point 45 °F
Humidity 63%
Rainfall 0.00 in
Snow Depth Not available.
6:30 AM 5:34 PM
Waxing Crescent, 9% visible
METAR OKBK 110430Z 04003KT 7000 FEW040 BKN080 14/07 Q1017 NOSIG
Pressure 30.04 in
Visibility 4.3 miles
Clouds Few 4000 ft
Mostly Cloudy 8000 ft
Dew Point 45 °F
Humidity 63%
Rainfall 0.00 in
Snow Depth Not available.
6:30 AM 5:34 PM
Waxing Crescent, 9% visible
METAR OKBK 110430Z 04003KT 7000 FEW040 BKN080 14/07 Q1017 NOSIG

10-Day Weather Forecast

No radar image for this location.
×

Almanac

Astronomy

Feb. 11, 2016 Rise Set
Actual Time
Civil Twilight
Nautical Twilight
Astronomical Twilight
Moon
Length of Visible Light
Length of Day
Tomorrow will be .
, % of the Moon is Illuminated

Today's Extremes

Country Highs Country Lows

Community

WunderPhotos

Upload Photos

1,892,014 photos uploaded!

WunderBlog® & News

Nearby

Air Quality

  Air Quality AQ Index Pollutant
Not available.

Snow Depth

Station Depth Elevation

Earthquake Activity

City Distance Mag. Time & Date
Minimum magnitude displayed is 2.5.

Coastal Water Temperatures

Place Temperature

Stations

Nearby Weather Stations

Station Location Temp. Windchill Dew Point Humidity Wind Precip. Elev Updated Type